sensor_id;sensor_type;location;lat;lon;timestamp;P1;durP1;ratioP1;P2;durP2;ratioP2
2956;SDS011;1488;51.548;7.222;2022-08-19T00:02:00;2.50;;;2.37;;
2956;SDS011;1488;51.548;7.222;2022-08-19T00:04:32;2.40;;;2.30;;
2956;SDS011;1488;51.548;7.222;2022-08-19T00:07:08;2.57;;;2.40;;
2956;SDS011;1488;51.548;7.222;2022-08-19T07:28:13;4.10;;;3.73;;
2956;SDS011;1488;51.548;7.222;2022-08-19T07:30:40;3.53;;;3.33;;
2956;SDS011;1488;51.548;7.222;2022-08-19T07:33:06;3.80;;;3.60;;
2956;SDS011;1488;51.548;7.222;2022-08-19T07:35:33;3.77;;;3.53;;
2956;SDS011;1488;51.548;7.222;2022-08-19T07:38:02;3.93;;;3.73;;
2956;SDS011;1488;51.548;7.222;2022-08-19T07:40:29;3.93;;;3.63;;
2956;SDS011;1488;51.548;7.222;2022-08-19T07:42:58;4.03;;;3.83;;
2956;SDS011;1488;51.548;7.222;2022-08-19T09:54:15;3.50;;;3.20;;
2956;SDS011;1488;51.548;7.222;2022-08-19T09:56:41;3.70;;;3.40;;
2956;SDS011;1488;51.548;7.222;2022-08-19T09:59:09;3.40;;;3.17;;
2956;SDS011;1488;51.548;7.222;2022-08-19T10:01:37;5.37;;;3.37;;
2956;SDS011;1488;51.548;7.222;2022-08-19T10:04:04;7.80;;;4.27;;
2956;SDS011;1488;51.548;7.222;2022-08-19T10:06:33;4.13;;;3.83;;
2956;SDS011;1488;51.548;7.222;2022-08-19T10:09:02;5.50;;;3.50;;
2956;SDS011;1488;51.548;7.222;2022-08-19T10:11:31;3.90;;;3.57;;
2956;SDS011;1488;51.548;7.222;2022-08-19T10:13:59;3.60;;;3.37;;
2956;SDS011;1488;51.548;7.222;2022-08-19T10:16:26;3.73;;;3.50;;
2956;SDS011;1488;51.548;7.222;2022-08-19T10:18:53;4.23;;;3.93;;
2956;SDS011;1488;51.548;7.222;2022-08-19T10:21:21;4.90;;;4.40;;
2956;SDS011;1488;51.548;7.222;2022-08-19T10:23:51;4.10;;;3.80;;
2956;SDS011;1488;51.548;7.222;2022-08-19T10:26:22;4.57;;;4.30;;
2956;SDS011;1488;51.548;7.222;2022-08-19T10:28:50;4.30;;;4.00;;
2956;SDS011;1488;51.548;7.222;2022-08-19T10:31:18;3.63;;;3.43;;
2956;SDS011;1488;51.548;7.222;2022-08-19T10:33:46;7.23;;;4.00;;
2956;SDS011;1488;51.548;7.222;2022-08-19T10:36:14;3.50;;;3.30;;
2956;SDS011;1488;51.548;7.222;2022-08-19T10:38:46;3.90;;;3.60;;
2956;SDS011;1488;51.548;7.222;2022-08-19T10:41:16;3.47;;;3.27;;
2956;SDS011;1488;51.548;7.222;2022-08-19T10:43:46;8.27;;;3.67;;
2956;SDS011;1488;51.548;7.222;2022-08-19T10:46:13;3.30;;;3.10;;
2956;SDS011;1488;51.548;7.222;2022-08-19T10:48:41;3.93;;;3.63;;
2956;SDS011;1488;51.548;7.222;2022-08-19T10:51:09;3.90;;;3.70;;
2956;SDS011;1488;51.548;7.222;2022-08-19T10:53:53;6.43;;;3.40;;
2956;SDS011;1488;51.548;7.222;2022-08-19T10:56:21;4.27;;;3.30;;
2956;SDS011;1488;51.548;7.222;2022-08-19T10:59:06;3.77;;;3.50;;
2956;SDS011;1488;51.548;7.222;2022-08-19T11:01:34;4.03;;;3.53;;
2956;SDS011;1488;51.548;7.222;2022-08-19T11:04:01;3.30;;;3.10;;
2956;SDS011;1488;51.548;7.222;2022-08-19T11:06:30;4.43;;;4.03;;
2956;SDS011;1488;51.548;7.222;2022-08-19T11:08:57;4.37;;;4.07;;
2956;SDS011;1488;51.548;7.222;2022-08-19T11:11:25;3.60;;;3.30;;
2956;SDS011;1488;51.548;7.222;2022-08-19T11:13:53;3.77;;;3.57;;
2956;SDS011;1488;51.548;7.222;2022-08-19T11:16:23;3.27;;;3.17;;
2956;SDS011;1488;51.548;7.222;2022-08-19T11:18:56;3.77;;;3.40;;
2956;SDS011;1488;51.548;7.222;2022-08-19T11:21:25;3.33;;;3.13;;
2956;SDS011;1488;51.548;7.222;2022-08-19T11:23:56;3.93;;;3.73;;
2956;SDS011;1488;51.548;7.222;2022-08-19T14:06:21;3.43;;;3.23;;
2956;SDS011;1488;51.548;7.222;2022-08-19T14:08:48;3.10;;;3.00;;
2956;SDS011;1488;51.548;7.222;2022-08-19T14:11:15;3.10;;;2.90;;
2956;SDS011;1488;51.548;7.222;2022-08-19T14:13:42;3.27;;;2.93;;
2956;SDS011;1488;51.548;7.222;2022-08-19T14:16:09;3.80;;;3.50;;
2956;SDS011;1488;51.548;7.222;2022-08-19T14:18:37;2.77;;;2.67;;
2956;SDS011;1488;51.548;7.222;2022-08-19T14:21:04;3.20;;;3.10;;
2956;SDS011;1488;51.548;7.222;2022-08-19T14:23:34;2.87;;;2.77;;
2956;SDS011;1488;51.548;7.222;2022-08-19T14:26:05;3.17;;;2.97;;
2956;SDS011;1488;51.548;7.222;2022-08-19T14:28:33;4.13;;;2.93;;
2956;SDS011;1488;51.548;7.222;2022-08-19T14:31:00;2.87;;;2.77;;
2956;SDS011;1488;51.548;7.222;2022-08-19T14:33:27;3.40;;;3.20;;
2956;SDS011;1488;51.548;7.222;2022-08-19T14:35:54;3.13;;;2.90;;
2956;SDS011;1488;51.548;7.222;2022-08-19T14:38:21;3.30;;;3.20;;
2956;SDS011;1488;51.548;7.222;2022-08-19T14:40:49;3.57;;;3.00;;
2956;SDS011;1488;51.548;7.222;2022-08-19T14:43:17;3.13;;;2.93;;
2956;SDS011;1488;51.548;7.222;2022-08-19T14:45:44;3.27;;;3.07;;
2956;SDS011;1488;51.548;7.222;2022-08-19T14:48:11;3.00;;;2.90;;
2956;SDS011;1488;51.548;7.222;2022-08-19T14:50:38;3.10;;;3.00;;
2956;SDS011;1488;51.548;7.222;2022-08-19T14:53:06;2.97;;;2.87;;
2956;SDS011;1488;51.548;7.222;2022-08-19T14:55:34;3.07;;;2.87;;
2956;SDS011;1488;51.548;7.222;2022-08-19T14:58:05;3.00;;;2.90;;
2956;SDS011;1488;51.548;7.222;2022-08-19T15:00:33;3.27;;;3.17;;
2956;SDS011;1488;51.548;7.222;2022-08-19T15:03:00;3.13;;;2.93;;
2956;SDS011;1488;51.548;7.222;2022-08-19T15:05:26;2.70;;;2.60;;
2956;SDS011;1488;51.548;7.222;2022-08-19T15:07:53;2.87;;;2.77;;
2956;SDS011;1488;51.548;7.222;2022-08-19T15:10:22;2.67;;;2.57;;
2956;SDS011;1488;51.548;7.222;2022-08-19T15:12:49;3.27;;;3.07;;
2956;SDS011;1488;51.548;7.222;2022-08-19T15:15:19;2.80;;;2.70;;
2956;SDS011;1488;51.548;7.222;2022-08-19T15:17:47;2.90;;;2.80;;
2956;SDS011;1488;51.548;7.222;2022-08-19T15:20:15;3.07;;;2.97;;
2956;SDS011;1488;51.548;7.222;2022-08-19T15:22:44;2.30;;;2.20;;
2956;SDS011;1488;51.548;7.222;2022-08-19T15:25:13;3.40;;;3.30;;
2956;SDS011;1488;51.548;7.222;2022-08-19T15:27:43;2.87;;;2.67;;
2956;SDS011;1488;51.548;7.222;2022-08-19T15:30:10;3.10;;;3.00;;
2956;SDS011;1488;51.548;7.222;2022-08-19T15:32:39;2.63;;;2.53;;
2956;SDS011;1488;51.548;7.222;2022-08-19T15:35:07;2.80;;;2.70;;
2956;SDS011;1488;51.548;7.222;2022-08-19T15:37:33;2.83;;;2.73;;
2956;SDS011;1488;51.548;7.222;2022-08-19T15:40:01;3.10;;;3.00;;
2956;SDS011;1488;51.548;7.222;2022-08-19T15:42:29;2.90;;;2.80;;
2956;SDS011;1488;51.548;7.222;2022-08-19T15:44:56;3.03;;;2.83;;
2956;SDS011;1488;51.548;7.222;2022-08-19T15:47:23;2.73;;;2.63;;
2956;SDS011;1488;51.548;7.222;2022-08-19T15:49:51;2.80;;;2.70;;
2956;SDS011;1488;51.548;7.222;2022-08-19T15:52:19;3.20;;;3.10;;
2956;SDS011;1488;51.548;7.222;2022-08-19T15:54:46;2.70;;;2.60;;
2956;SDS011;1488;51.548;7.222;2022-08-19T15:57:12;3.30;;;3.10;;
2956;SDS011;1488;51.548;7.222;2022-08-19T15:59:57;2.73;;;2.63;;
2956;SDS011;1488;51.548;7.222;2022-08-19T16:02:41;3.43;;;3.13;;
2956;SDS011;1488;51.548;7.222;2022-08-19T16:05:27;3.20;;;3.00;;
2956;SDS011;1488;51.548;7.222;2022-08-19T16:08:11;3.60;;;3.40;;
2956;SDS011;1488;51.548;7.222;2022-08-19T16:10:39;3.13;;;2.93;;
2956;SDS011;1488;51.548;7.222;2022-08-19T16:13:06;2.73;;;2.63;;
2956;SDS011;1488;51.548;7.222;2022-08-19T16:15:34;2.93;;;2.60;;
2956;SDS011;1488;51.548;7.222;2022-08-19T16:18:01;3.30;;;3.17;;
2956;SDS011;1488;51.548;7.222;2022-08-19T16:20:30;3.43;;;3.13;;
2956;SDS011;1488;51.548;7.222;2022-08-19T16:22:57;3.37;;;3.17;;
2956;SDS011;1488;51.548;7.222;2022-08-19T16:25:25;8.30;;;3.00;;
2956;SDS011;1488;51.548;7.222;2022-08-19T16:27:53;3.43;;;3.23;;
2956;SDS011;1488;51.548;7.222;2022-08-19T16:30:20;3.13;;;2.83;;
2956;SDS011;1488;51.548;7.222;2022-08-19T16:32:47;3.47;;;3.27;;
2956;SDS011;1488;51.548;7.222;2022-08-19T16:35:13;3.20;;;3.00;;
2956;SDS011;1488;51.548;7.222;2022-08-19T16:37:42;2.90;;;2.80;;
2956;SDS011;1488;51.548;7.222;2022-08-19T16:40:09;3.10;;;3.00;;
2956;SDS011;1488;51.548;7.222;2022-08-19T16:42:37;3.40;;;3.20;;
2956;SDS011;1488;51.548;7.222;2022-08-19T16:45:04;3.03;;;2.93;;
2956;SDS011;1488;51.548;7.222;2022-08-19T16:47:33;3.60;;;3.40;;
2956;SDS011;1488;51.548;7.222;2022-08-19T16:50:00;3.00;;;2.80;;
2956;SDS011;1488;51.548;7.222;2022-08-19T16:52:27;3.20;;;3.10;;
2956;SDS011;1488;51.548;7.222;2022-08-19T16:54:55;3.07;;;2.97;;
2956;SDS011;1488;51.548;7.222;2022-08-19T16:57:22;3.07;;;2.97;;
2956;SDS011;1488;51.548;7.222;2022-08-19T16:59:49;3.80;;;3.50;;
2956;SDS011;1488;51.548;7.222;2022-08-19T17:02:16;3.30;;;3.17;;
2956;SDS011;1488;51.548;7.222;2022-08-19T17:04:45;2.90;;;2.80;;
2956;SDS011;1488;51.548;7.222;2022-08-19T17:07:13;3.20;;;2.90;;
2956;SDS011;1488;51.548;7.222;2022-08-19T17:09:40;3.27;;;3.10;;
2956;SDS011;1488;51.548;7.222;2022-08-19T17:12:09;3.23;;;3.03;;
2956;SDS011;1488;51.548;7.222;2022-08-19T17:14:36;3.03;;;2.93;;
2956;SDS011;1488;51.548;7.222;2022-08-19T17:17:03;3.53;;;3.20;;
2956;SDS011;1488;51.548;7.222;2022-08-19T17:19:30;2.83;;;2.73;;
2956;SDS011;1488;51.548;7.222;2022-08-19T17:21:57;3.03;;;2.93;;
2956;SDS011;1488;51.548;7.222;2022-08-19T17:24:24;3.63;;;3.33;;
2956;SDS011;1488;51.548;7.222;2022-08-19T17:26:51;3.53;;;3.33;;
2956;SDS011;1488;51.548;7.222;2022-08-19T17:29:19;3.63;;;3.43;;
2956;SDS011;1488;51.548;7.222;2022-08-19T17:31:46;3.40;;;3.30;;
2956;SDS011;1488;51.548;7.222;2022-08-19T17:34:13;3.70;;;3.50;;
2956;SDS011;1488;51.548;7.222;2022-08-19T17:36:41;2.97;;;2.77;;
2956;SDS011;1488;51.548;7.222;2022-08-19T17:39:08;4.37;;;4.17;;
2956;SDS011;1488;51.548;7.222;2022-08-19T17:41:35;3.60;;;3.40;;
2956;SDS011;1488;51.548;7.222;2022-08-19T17:44:02;3.60;;;3.40;;
2956;SDS011;1488;51.548;7.222;2022-08-19T17:46:31;2.77;;;2.67;;
2956;SDS011;1488;51.548;7.222;2022-08-19T17:48:58;3.93;;;3.63;;
2956;SDS011;1488;51.548;7.222;2022-08-19T17:51:36;2.90;;;2.80;;
2956;SDS011;1488;51.548;7.222;2022-08-19T17:54:06;3.23;;;3.13;;
2956;SDS011;1488;51.548;7.222;2022-08-19T17:56:34;3.40;;;3.27;;
2956;SDS011;1488;51.548;7.222;2022-08-19T17:59:02;3.10;;;3.00;;
2956;SDS011;1488;51.548;7.222;2022-08-19T18:01:31;3.43;;;3.10;;
2956;SDS011;1488;51.548;7.222;2022-08-19T18:03:58;3.40;;;3.20;;
2956;SDS011;1488;51.548;7.222;2022-08-19T18:06:25;3.33;;;3.23;;
2956;SDS011;1488;51.548;7.222;2022-08-19T18:08:52;4.00;;;3.47;;
2956;SDS011;1488;51.548;7.222;2022-08-19T18:11:20;3.53;;;3.40;;
2956;SDS011;1488;51.548;7.222;2022-08-19T18:13:48;4.20;;;3.90;;
2956;SDS011;1488;51.548;7.222;2022-08-19T18:16:15;3.20;;;2.93;;
2956;SDS011;1488;51.548;7.222;2022-08-19T18:18:44;3.30;;;3.10;;
2956;SDS011;1488;51.548;7.222;2022-08-19T18:21:10;3.90;;;3.70;;
2956;SDS011;1488;51.548;7.222;2022-08-19T18:23:37;3.63;;;3.43;;
2956;SDS011;1488;51.548;7.222;2022-08-19T18:26:05;3.50;;;3.30;;
2956;SDS011;1488;51.548;7.222;2022-08-19T18:28:32;4.23;;;3.93;;
2956;SDS011;1488;51.548;7.222;2022-08-19T18:30:59;7.93;;;7.07;;
2956;SDS011;1488;51.548;7.222;2022-08-19T18:33:28;10.43;;;8.67;;
2956;SDS011;1488;51.548;7.222;2022-08-19T18:35:57;8.80;;;7.50;;
2956;SDS011;1488;51.548;7.222;2022-08-19T18:38:24;8.67;;;7.77;;
2956;SDS011;1488;51.548;7.222;2022-08-19T18:41:08;12.23;;;7.00;;
2956;SDS011;1488;51.548;7.222;2022-08-19T18:43:52;8.03;;;7.10;;
2956;SDS011;1488;51.548;7.222;2022-08-19T18:46:37;6.40;;;5.77;;
2956;SDS011;1488;51.548;7.222;2022-08-19T18:49:23;6.83;;;6.33;;
2956;SDS011;1488;51.548;7.222;2022-08-19T18:51:52;6.80;;;6.13;;
2956;SDS011;1488;51.548;7.222;2022-08-19T18:54:21;7.67;;;6.00;;
2956;SDS011;1488;51.548;7.222;2022-08-19T18:56:49;6.50;;;5.57;;
2956;SDS011;1488;51.548;7.222;2022-08-19T18:59:19;5.90;;;5.40;;
2956;SDS011;1488;51.548;7.222;2022-08-19T19:01:47;6.33;;;5.73;;
2956;SDS011;1488;51.548;7.222;2022-08-19T19:04:17;6.20;;;5.40;;
2956;SDS011;1488;51.548;7.222;2022-08-19T19:06:45;9.10;;;4.50;;
2956;SDS011;1488;51.548;7.222;2022-08-19T19:09:14;6.23;;;5.73;;
2956;SDS011;1488;51.548;7.222;2022-08-19T19:11:45;6.10;;;5.50;;
2956;SDS011;1488;51.548;7.222;2022-08-19T19:14:15;5.80;;;5.27;;
2956;SDS011;1488;51.548;7.222;2022-08-19T19:16:46;6.43;;;5.60;;
2956;SDS011;1488;51.548;7.222;2022-08-19T19:19:14;5.27;;;4.77;;
